sensor_id;sensor_type;location;lat;lon;timestamp;temperature;humidity
35962;DHT22;22044;48.298;10.008;2022-11-20T00:01:49;3.70;99.90
35962;DHT22;22044;48.298;10.008;2022-11-20T00:04:35;3.60;99.90
35962;DHT22;22044;48.298;10.008;2022-11-20T00:07:21;3.60;99.90
35962;DHT22;22044;48.298;10.008;2022-11-20T00:10:08;3.60;99.90
35962;DHT22;22044;48.298;10.008;2022-11-20T00:12:53;3.50;99.90
35962;DHT22;22044;48.298;10.008;2022-11-20T00:15:39;3.50;99.90
35962;DHT22;22044;48.298;10.008;2022-11-20T00:18:25;3.50;99.90
35962;DHT22;22044;48.298;10.008;2022-11-20T00:21:12;3.60;99.90
35962;DHT22;22044;48.298;10.008;2022-11-20T00:23:59;3.60;99.90
35962;DHT22;22044;48.298;10.008;2022-11-20T00:26:45;3.60;99.90
35962;DHT22;22044;48.298;10.008;2022-11-20T00:29:31;3.60;99.90
35962;DHT22;22044;48.298;10.008;2022-11-20T00:32:16;3.60;99.90
35962;DHT22;22044;48.298;10.008;2022-11-20T00:35:02;3.60;99.90
35962;DHT22;22044;48.298;10.008;2022-11-20T00:37:48;3.60;99.90
35962;DHT22;22044;48.298;10.008;2022-11-20T00:40:34;3.60;99.90
35962;DHT22;22044;48.298;10.008;2022-11-20T00:43:20;3.60;99.90
35962;DHT22;22044;48.298;10.008;2022-11-20T00:46:08;3.60;99.90
35962;DHT22;22044;48.298;10.008;2022-11-20T00:48:54;3.60;99.90
35962;DHT22;22044;48.298;10.008;2022-11-20T00:51:40;3.60;99.90
35962;DHT22;22044;48.298;10.008;2022-11-20T00:54:25;3.60;99.90
35962;DHT22;22044;48.298;10.008;2022-11-20T00:57:12;3.70;99.90
35962;DHT22;22044;48.298;10.008;2022-11-20T00:59:57;3.70;99.90
35962;DHT22;22044;48.298;10.008;2022-11-20T01:02:43;3.70;99.90
35962;DHT22;22044;48.298;10.008;2022-11-20T01:05:29;3.70;99.90
35962;DHT22;22044;48.298;10.008;2022-11-20T01:08:19;3.70;99.90
35962;DHT22;22044;48.298;10.008;2022-11-20T01:11:07;3.70;99.90
35962;DHT22;22044;48.298;10.008;2022-11-20T01:13:55;3.60;99.90
35962;DHT22;22044;48.298;10.008;2022-11-20T01:16:44;3.60;99.90
35962;DHT22;22044;48.298;10.008;2022-11-20T01:19:30;3.60;99.90
35962;DHT22;22044;48.298;10.008;2022-11-20T01:22:15;3.60;99.90
35962;DHT22;22044;48.298;10.008;2022-11-20T01:25:01;3.70;99.90
35962;DHT22;22044;48.298;10.008;2022-11-20T01:27:46;3.70;99.90
35962;DHT22;22044;48.298;10.008;2022-11-20T01:30:33;3.80;99.90
35962;DHT22;22044;48.298;10.008;2022-11-20T01:33:19;3.70;99.90
35962;DHT22;22044;48.298;10.008;2022-11-20T01:36:05;3.80;99.90
35962;DHT22;22044;48.298;10.008;2022-11-20T01:38:51;3.70;99.90
35962;DHT22;22044;48.298;10.008;2022-11-20T01:41:38;3.60;99.90
35962;DHT22;22044;48.298;10.008;2022-11-20T01:44:53;3.50;99.90
35962;DHT22;22044;48.298;10.008;2022-11-20T01:47:42;3.50;99.90
35962;DHT22;22044;48.298;10.008;2022-11-20T01:50:30;3.40;99.90
35962;DHT22;22044;48.298;10.008;2022-11-20T01:53:19;3.40;99.90
35962;DHT22;22044;48.298;10.008;2022-11-20T01:56:09;3.40;99.90
35962;DHT22;22044;48.298;10.008;2022-11-20T01:58:59;3.40;99.90
35962;DHT22;22044;48.298;10.008;2022-11-20T02:01:46;3.40;99.90
35962;DHT22;22044;48.298;10.008;2022-11-20T02:04:33;3.40;99.90
35962;DHT22;22044;48.298;10.008;2022-11-20T02:07:20;3.40;99.90
35962;DHT22;22044;48.298;10.008;2022-11-20T02:10:07;3.40;99.90
35962;DHT22;22044;48.298;10.008;2022-11-20T02:12:53;3.30;99.90
35962;DHT22;22044;48.298;10.008;2022-11-20T02:15:56;3.20;99.90
35962;DHT22;22044;48.298;10.008;2022-11-20T02:18:43;3.20;99.90
35962;DHT22;22044;48.298;10.008;2022-11-20T02:21:36;3.20;99.90
35962;DHT22;22044;48.298;10.008;2022-11-20T02:24:25;3.10;99.90
35962;DHT22;22044;48.298;10.008;2022-11-20T02:27:13;3.10;99.90
35962;DHT22;22044;48.298;10.008;2022-11-20T02:30:01;3.10;99.90
35962;DHT22;22044;48.298;10.008;2022-11-20T02:32:47;3.20;99.90
35962;DHT22;22044;48.298;10.008;2022-11-20T02:35:42;3.30;99.90
35962;DHT22;22044;48.298;10.008;2022-11-20T02:38:28;3.40;99.90
35962;DHT22;22044;48.298;10.008;2022-11-20T02:41:14;3.50;99.90
35962;DHT22;22044;48.298;10.008;2022-11-20T02:44:00;3.60;99.90
35962;DHT22;22044;48.298;10.008;2022-11-20T02:46:46;3.70;99.90
35962;DHT22;22044;48.298;10.008;2022-11-20T02:49:32;3.70;99.90
35962;DHT22;22044;48.298;10.008;2022-11-20T02:52:17;3.70;99.90
35962;DHT22;22044;48.298;10.008;2022-11-20T02:55:04;3.70;99.90
35962;DHT22;22044;48.298;10.008;2022-11-20T02:57:51;3.80;99.90
35962;DHT22;22044;48.298;10.008;2022-11-20T03:00:37;3.80;99.90
35962;DHT22;22044;48.298;10.008;2022-11-20T03:03:22;3.80;99.90
35962;DHT22;22044;48.298;10.008;2022-11-20T03:06:08;3.80;99.90
35962;DHT22;22044;48.298;10.008;2022-11-20T03:08:53;3.80;99.90
35962;DHT22;22044;48.298;10.008;2022-11-20T03:11:39;3.80;99.90
35962;DHT22;22044;48.298;10.008;2022-11-20T03:14:26;3.90;99.90
35962;DHT22;22044;48.298;10.008;2022-11-20T03:17:11;3.90;99.90
35962;DHT22;22044;48.298;10.008;2022-11-20T03:19:57;3.90;99.90
35962;DHT22;22044;48.298;10.008;2022-11-20T03:22:43;3.90;99.90
35962;DHT22;22044;48.298;10.008;2022-11-20T03:25:28;3.80;99.90
35962;DHT22;22044;48.298;10.008;2022-11-20T03:28:14;3.70;99.90
35962;DHT22;22044;48.298;10.008;2022-11-20T03:31:09;3.70;99.90
35962;DHT22;22044;48.298;10.008;2022-11-20T03:33:56;3.70;99.90
35962;DHT22;22044;48.298;10.008;2022-11-20T03:36:42;3.60;99.90
35962;DHT22;22044;48.298;10.008;2022-11-20T03:39:28;3.60;99.90
35962;DHT22;22044;48.298;10.008;2022-11-20T03:42:14;3.50;99.90
35962;DHT22;22044;48.298;10.008;2022-11-20T03:45:14;3.30;99.90
35962;DHT22;22044;48.298;10.008;2022-11-20T03:48:01;3.30;99.90
35962;DHT22;22044;48.298;10.008;2022-11-20T03:50:47;3.40;99.90
35962;DHT22;22044;48.298;10.008;2022-11-20T03:53:32;3.60;99.90
35962;DHT22;22044;48.298;10.008;2022-11-20T03:56:22;3.60;99.90
35962;DHT22;22044;48.298;10.008;2022-11-20T03:59:10;3.50;99.90
35962;DHT22;22044;48.298;10.008;2022-11-20T04:01:56;3.40;99.90
35962;DHT22;22044;48.298;10.008;2022-11-20T04:04:43;3.30;99.90
35962;DHT22;22044;48.298;10.008;2022-11-20T04:07:28;3.20;99.90
35962;DHT22;22044;48.298;10.008;2022-11-20T04:10:14;3.30;99.90
35962;DHT22;22044;48.298;10.008;2022-11-20T04:13:00;3.30;99.90
35962;DHT22;22044;48.298;10.008;2022-11-20T04:15:45;3.40;99.90
35962;DHT22;22044;48.298;10.008;2022-11-20T04:18:31;3.40;99.90
35962;DHT22;22044;48.298;10.008;2022-11-20T04:21:18;3.30;99.90
35962;DHT22;22044;48.298;10.008;2022-11-20T04:24:04;3.20;99.90
35962;DHT22;22044;48.298;10.008;2022-11-20T04:26:49;3.20;99.90
35962;DHT22;22044;48.298;10.008;2022-11-20T04:29:36;3.20;99.90
35962;DHT22;22044;48.298;10.008;2022-11-20T04:32:21;3.10;99.90
35962;DHT22;22044;48.298;10.008;2022-11-20T04:35:07;2.90;99.90
35962;DHT22;22044;48.298;10.008;2022-11-20T04:37:54;2.80;99.90
35962;DHT22;22044;48.298;10.008;2022-11-20T04:40:39;2.80;99.90
35962;DHT22;22044;48.298;10.008;2022-11-20T04:43:25;3.00;99.90
35962;DHT22;22044;48.298;10.008;2022-11-20T04:46:11;3.10;99.90
35962;DHT22;22044;48.298;10.008;2022-11-20T04:48:57;3.20;99.90
35962;DHT22;22044;48.298;10.008;2022-11-20T04:51:42;3.30;99.90
35962;DHT22;22044;48.298;10.008;2022-11-20T04:54:29;3.30;99.90
35962;DHT22;22044;48.298;10.008;2022-11-20T04:57:15;3.30;99.90
35962;DHT22;22044;48.298;10.008;2022-11-20T05:00:00;3.40;99.90
35962;DHT22;22044;48.298;10.008;2022-11-20T05:02:46;3.30;99.90
35962;DHT22;22044;48.298;10.008;2022-11-20T05:05:32;3.30;99.90
35962;DHT22;22044;48.298;10.008;2022-11-20T05:08:18;3.30;99.90
35962;DHT22;22044;48.298;10.008;2022-11-20T05:11:07;3.40;99.90
35962;DHT22;22044;48.298;10.008;2022-11-20T05:13:53;3.50;99.90
35962;DHT22;22044;48.298;10.008;2022-11-20T05:16:39;3.50;99.90
35962;DHT22;22044;48.298;10.008;2022-11-20T05:19:24;3.50;99.90
35962;DHT22;22044;48.298;10.008;2022-11-20T05:22:10;3.50;99.90
35962;DHT22;22044;48.298;10.008;2022-11-20T05:24:56;3.50;99.90
35962;DHT22;22044;48.298;10.008;2022-11-20T05:27:43;3.40;99.90
35962;DHT22;22044;48.298;10.008;2022-11-20T05:30:28;3.40;99.90
35962;DHT22;22044;48.298;10.008;2022-11-20T05:33:14;3.40;99.90
35962;DHT22;22044;48.298;10.008;2022-11-20T05:36:00;3.50;99.90
35962;DHT22;22044;48.298;10.008;2022-11-20T05:38:45;3.50;99.90
35962;DHT22;22044;48.298;10.008;2022-11-20T05:41:33;3.50;99.90
35962;DHT22;22044;48.298;10.008;2022-11-20T05:44:20;3.50;99.90
35962;DHT22;22044;48.298;10.008;2022-11-20T05:47:05;3.50;99.90
35962;DHT22;22044;48.298;10.008;2022-11-20T05:49:51;3.50;99.90
35962;DHT22;22044;48.298;10.008;2022-11-20T05:52:36;3.60;99.90
35962;DHT22;22044;48.298;10.008;2022-11-20T05:55:22;3.60;99.90
35962;DHT22;22044;48.298;10.008;2022-11-20T05:58:08;3.40;99.90
35962;DHT22;22044;48.298;10.008;2022-11-20T06:00:54;3.30;99.90
35962;DHT22;22044;48.298;10.008;2022-11-20T06:03:41;3.20;99.90
35962;DHT22;22044;48.298;10.008;2022-11-20T06:06:30;3.30;99.90
35962;DHT22;22044;48.298;10.008;2022-11-20T06:09:15;3.20;99.90
35962;DHT22;22044;48.298;10.008;2022-11-20T06:12:01;3.20;99.90
35962;DHT22;22044;48.298;10.008;2022-11-20T06:14:46;3.20;99.90
35962;DHT22;22044;48.298;10.008;2022-11-20T06:17:33;3.20;99.90
35962;DHT22;22044;48.298;10.008;2022-11-20T06:20:18;3.20;99.90
35962;DHT22;22044;48.298;10.008;2022-11-20T06:23:04;3.30;99.90
35962;DHT22;22044;48.298;10.008;2022-11-20T06:25:50;3.40;99.90
35962;DHT22;22044;48.298;10.008;2022-11-20T06:28:35;3.50;99.90
35962;DHT22;22044;48.298;10.008;2022-11-20T06:31:24;3.40;99.90
35962;DHT22;22044;48.298;10.008;2022-11-20T06:34:12;3.50;99.90
35962;DHT22;22044;48.298;10.008;2022-11-20T06:36:58;3.50;99.90
35962;DHT22;22044;48.298;10.008;2022-11-20T06:39:43;3.50;99.90
35962;DHT22;22044;48.298;10.008;2022-11-20T06:42:29;3.60;99.90
35962;DHT22;22044;48.298;10.008;2022-11-20T06:45:14;3.60;99.90
35962;DHT22;22044;48.298;10.008;2022-11-20T06:48:00;3.50;99.90
35962;DHT22;22044;48.298;10.008;2022-11-20T06:50:47;3.50;99.90
35962;DHT22;22044;48.298;10.008;2022-11-20T06:53:33;3.50;99.90
35962;DHT22;22044;48.298;10.008;2022-11-20T06:56:19;3.50;99.90
35962;DHT22;22044;48.298;10.008;2022-11-20T06:59:05;3.40;99.90
35962;DHT22;22044;48.298;10.008;2022-11-20T07:01:51;3.50;99.90
35962;DHT22;22044;48.298;10.008;2022-11-20T07:04:37;3.50;99.90
35962;DHT22;22044;48.298;10.008;2022-11-20T07:07:23;3.50;99.90
35962;DHT22;22044;48.298;10.008;2022-11-20T07:10:10;3.50;99.90
35962;DHT22;22044;48.298;10.008;2022-11-20T07:12:56;3.60;99.90
35962;DHT22;22044;48.298;10.008;2022-11-20T07:15:41;3.50;99.90
35962;DHT22;22044;48.298;10.008;2022-11-20T07:18:27;3.50;99.90
35962;DHT22;22044;48.298;10.008;2022-11-20T07:21:12;3.60;99.90
35962;DHT22;22044;48.298;10.008;2022-11-20T07:24:00;3.60;99.90
35962;DHT22;22044;48.298;10.008;2022-11-20T07:26:46;3.60;99.90
35962;DHT22;22044;48.298;10.008;2022-11-20T07:29:33;3.70;99.90
35962;DHT22;22044;48.298;10.008;2022-11-20T07:32:18;3.70;99.90
35962;DHT22;22044;48.298;10.008;2022-11-20T07:35:04;3.80;99.90
35962;DHT22;22044;48.298;10.008;2022-11-20T07:37:50;3.80;99.90
35962;DHT22;22044;48.298;10.008;2022-11-20T07:40:37;3.70;99.90
35962;DHT22;22044;48.298;10.008;2022-11-20T07:43:22;3.80;99.90
35962;DHT22;22044;48.298;10.008;2022-11-20T07:46:08;3.80;99.90
35962;DHT22;22044;48.298;10.008;2022-11-20T07:48:54;3.80;99.90
35962;DHT22;22044;48.298;10.008;2022-11-20T07:51:40;3.90;99.90
35962;DHT22;22044;48.298;10.008;2022-11-20T07:54:25;3.90;99.90
35962;DHT22;22044;48.298;10.008;2022-11-20T07:57:13;4.00;99.90
35962;DHT22;22044;48.298;10.008;2022-11-20T07:59:58;4.10;99.90
35962;DHT22;22044;48.298;10.008;2022-11-20T08:02:44;4.30;99.90
35962;DHT22;22044;48.298;10.008;2022-11-20T08:05:29;4.40;99.90
35962;DHT22;22044;48.298;10.008;2022-11-20T08:08:15;4.40;99.90
35962;DHT22;22044;48.298;10.008;2022-11-20T08:11:00;4.60;99.90
35962;DHT22;22044;48.298;10.008;2022-11-20T08:14:01;4.70;99.90
35962;DHT22;22044;48.298;10.008;2022-11-20T08:17:00;4.70;99.90
35962;DHT22;22044;48.298;10.008;2022-11-20T08:19:45;4.60;99.90
35962;DHT22;22044;48.298;10.008;2022-11-20T08:22:31;4.60;99.90
35962;DHT22;22044;48.298;10.008;2022-11-20T08:25:17;4.50;99.90
35962;DHT22;22044;48.298;10.008;2022-11-20T08:28:04;4.40;99.90
35962;DHT22;22044;48.298;10.008;2022-11-20T08:30:56;4.40;99.90
35962;DHT22;22044;48.298;10.008;2022-11-20T08:33:43;4.40;99.90
35962;DHT22;22044;48.298;10.008;2022-11-20T08:36:28;4.30;99.90
35962;DHT22;22044;48.298;10.008;2022-11-20T08:39:14;4.40;99.90
35962;DHT22;22044;48.298;10.008;2022-11-20T08:42:00;4.40;99.90
35962;DHT22;22044;48.298;10.008;2022-11-20T08:44:45;4.30;99.90
35962;DHT22;22044;48.298;10.008;2022-11-20T08:47:32;4.30;99.90
35962;DHT22;22044;48.298;10.008;2022-11-20T08:50:18;4.30;99.90
35962;DHT22;22044;48.298;10.008;2022-11-20T08:53:04;4.30;99.90
35962;DHT22;22044;48.298;10.008;2022-11-20T08:55:50;4.40;99.90
35962;DHT22;22044;48.298;10.008;2022-11-20T08:58:36;4.40;99.90
35962;DHT22;22044;48.298;10.008;2022-11-20T09:01:23;4.50;99.90
35962;DHT22;22044;48.298;10.008;2022-11-20T09:04:10;4.60;99.90
35962;DHT22;22044;48.298;10.008;2022-11-20T09:07:00;4.60;99.90
35962;DHT22;22044;48.298;10.008;2022-11-20T09:09:45;4.60;99.90
35962;DHT22;22044;48.298;10.008;2022-11-20T09:12:31;4.70;99.90
35962;DHT22;22044;48.298;10.008;2022-11-20T09:15:17;4.70;99.90
35962;DHT22;22044;48.298;10.008;2022-11-20T09:18:03;4.70;99.90
35962;DHT22;22044;48.298;10.008;2022-11-20T09:20:50;4.80;99.90
35962;DHT22;22044;48.298;10.008;2022-11-20T09:23:37;4.80;99.90
35962;DHT22;22044;48.298;10.008;2022-11-20T09:26:23;4.90;99.90
35962;DHT22;22044;48.298;10.008;2022-11-20T09:29:08;5.00;99.90
35962;DHT22;22044;48.298;10.008;2022-11-20T09:31:54;5.00;99.90
35962;DHT22;22044;48.298;10.008;2022-11-20T09:34:40;5.10;99.90
35962;DHT22;22044;48.298;10.008;2022-11-20T09:37:27;5.20;99.90
35962;DHT22;22044;48.298;10.008;2022-11-20T09:40:19;5.20;99.90
35962;DHT22;22044;48.298;10.008;2022-11-20T09:43:10;5.20;99.90
35962;DHT22;22044;48.298;10.008;2022-11-20T09:46:05;5.20;99.90
35962;DHT22;22044;48.298;10.008;2022-11-20T09:49:03;5.10;99.90
35962;DHT22;22044;48.298;10.008;2022-11-20T09:51:57;5.10;99.90
35962;DHT22;22044;48.298;10.008;2022-11-20T09:54:44;5.20;99.90
35962;DHT22;22044;48.298;10.008;2022-11-20T09:57:36;5.20;99.90
35962;DHT22;22044;48.298;10.008;2022-11-20T10:00:23;5.20;99.90
35962;DHT22;22044;48.298;10.008;2022-11-20T10:03:14;5.20;99.90
35962;DHT22;22044;48.298;10.008;2022-11-20T10:06:02;5.30;99.90
35962;DHT22;22044;48.298;10.008;2022-11-20T10:08:54;5.30;99.90
35962;DHT22;22044;48.298;10.008;2022-11-20T10:11:48;5.40;99.90
35962;DHT22;22044;48.298;10.008;2022-11-20T10:14:46;5.40;99.90
35962;DHT22;22044;48.298;10.008;2022-11-20T10:17:52;5.50;99.90
35962;DHT22;22044;48.298;10.008;2022-11-20T10:20:46;5.60;99.90
35962;DHT22;22044;48.298;10.008;2022-11-20T10:23:54;5.60;99.90
35962;DHT22;22044;48.298;10.008;2022-11-20T10:26:51;5.70;99.90
35962;DHT22;22044;48.298;10.008;2022-11-20T10:29:43;5.60;99.90
35962;DHT22;22044;48.298;10.008;2022-11-20T10:32:36;5.70;99.90
35962;DHT22;22044;48.298;10.008;2022-11-20T10:35:26;5.70;99.90
35962;DHT22;22044;48.298;10.008;2022-11-20T10:38:18;5.70;99.90
35962;DHT22;22044;48.298;10.008;2022-11-20T10:41:06;5.60;99.90
35962;DHT22;22044;48.298;10.008;2022-11-20T10:44:15;5.70;99.90
35962;DHT22;22044;48.298;10.008;2022-11-20T10:47:22;5.70;99.90
35962;DHT22;22044;48.298;10.008;2022-11-20T10:50:11;5.70;99.90
35962;DHT22;22044;48.298;10.008;2022-11-20T10:53:07;5.80;99.90
35962;DHT22;22044;48.298;10.008;2022-11-20T10:55:57;5.70;99.90
35962;DHT22;22044;48.298;10.008;2022-11-20T10:58:52;5.70;99.90
35962;DHT22;22044;48.298;10.008;2022-11-20T11:01:42;5.80;99.90
35962;DHT22;22044;48.298;10.008;2022-11-20T11:04:33;5.70;99.90
35962;DHT22;22044;48.298;10.008;2022-11-20T11:07:24;5.70;99.90
35962;DHT22;22044;48.298;10.008;2022-11-20T11:10:16;5.70;99.90
35962;DHT22;22044;48.298;10.008;2022-11-20T11:13:02;5.70;99.90
35962;DHT22;22044;48.298;10.008;2022-11-20T11:15:49;5.70;99.90
35962;DHT22;22044;48.298;10.008;2022-11-20T11:18:36;5.70;99.90
35962;DHT22;22044;48.298;10.008;2022-11-20T11:21:23;5.60;99.90
35962;DHT22;22044;48.298;10.008;2022-11-20T11:24:19;5.70;99.90
35962;DHT22;22044;48.298;10.008;2022-11-20T11:27:12;5.70;99.90
35962;DHT22;22044;48.298;10.008;2022-11-20T11:30:11;5.70;99.90
35962;DHT22;22044;48.298;10.008;2022-11-20T11:33:05;5.70;99.90
35962;DHT22;22044;48.298;10.008;2022-11-20T11:35:53;5.70;99.90
35962;DHT22;22044;48.298;10.008;2022-11-20T11:38:42;5.70;99.90
35962;DHT22;22044;48.298;10.008;2022-11-20T11:41:31;5.70;99.90
35962;DHT22;22044;48.298;10.008;2022-11-20T11:44:20;5.80;99.90
35962;DHT22;22044;48.298;10.008;2022-11-20T11:47:26;5.80;99.90
35962;DHT22;22044;48.298;10.008;2022-11-20T11:50:18;5.80;99.90
35962;DHT22;22044;48.298;10.008;2022-11-20T11:53:09;5.80;99.90
35962;DHT22;22044;48.298;10.008;2022-11-20T11:56:02;5.80;99.90
35962;DHT22;22044;48.298;10.008;2022-11-20T11:58:51;5.80;99.90
35962;DHT22;22044;48.298;10.008;2022-11-20T12:01:44;5.80;99.90
35962;DHT22;22044;48.298;10.008;2022-11-20T12:04:42;5.80;99.90
35962;DHT22;22044;48.298;10.008;2022-11-20T12:07:38;5.80;99.90
35962;DHT22;22044;48.298;10.008;2022-11-20T12:10:36;5.80;99.90
35962;DHT22;22044;48.298;10.008;2022-11-20T12:13:39;5.70;99.90
35962;DHT22;22044;48.298;10.008;2022-11-20T12:16:25;5.70;99.90
35962;DHT22;22044;48.298;10.008;2022-11-20T12:19:13;5.80;99.90
35962;DHT22;22044;48.298;10.008;2022-11-20T12:22:02;5.70;99.90
35962;DHT22;22044;48.298;10.008;2022-11-20T12:24:55;5.80;99.90
35962;DHT22;22044;48.298;10.008;2022-11-20T12:28:05;5.80;99.90
35962;DHT22;22044;48.298;10.008;2022-11-20T12:31:08;5.90;99.90
35962;DHT22;22044;48.298;10.008;2022-11-20T12:37:20;5.90;99.90
35962;DHT22;22044;48.298;10.008;2022-11-20T12:40:22;5.90;99.90
35962;DHT22;22044;48.298;10.008;2022-11-20T12:43:19;5.90;99.90
35962;DHT22;22044;48.298;10.008;2022-11-20T12:46:28;5.90;99.90
35962;DHT22;22044;48.298;10.008;2022-11-20T12:49:29;6.00;99.90
35962;DHT22;22044;48.298;10.008;2022-11-20T12:52:37;6.00;99.90
35962;DHT22;22044;48.298;10.008;2022-11-20T12:55:31;6.10;99.90
35962;DHT22;22044;48.298;10.008;2022-11-20T12:58:24;6.20;99.90
35962;DHT22;22044;48.298;10.008;2022-11-20T13:01:21;6.20;99.90
35962;DHT22;22044;48.298;10.008;2022-11-20T13:07:50;6.40;99.90
35962;DHT22;22044;48.298;10.008;2022-11-20T13:10:42;6.40;99.90
35962;DHT22;22044;48.298;10.008;2022-11-20T13:13:35;6.40;99.90
35962;DHT22;22044;48.298;10.008;2022-11-20T13:16:36;6.40;99.90
35962;DHT22;22044;48.298;10.008;2022-11-20T13:19:24;6.50;99.90
35962;DHT22;22044;48.298;10.008;2022-11-20T13:22:11;6.60;99.90
35962;DHT22;22044;48.298;10.008;2022-11-20T13:24:57;6.50;99.90
35962;DHT22;22044;48.298;10.008;2022-11-20T13:27:47;6.50;99.90
35962;DHT22;22044;48.298;10.008;2022-11-20T13:30:36;6.50;99.90
35962;DHT22;22044;48.298;10.008;2022-11-20T13:33:27;6.50;99.90
35962;DHT22;22044;48.298;10.008;2022-11-20T13:36:21;6.40;99.90
35962;DHT22;22044;48.298;10.008;2022-11-20T13:39:08;6.40;99.90
35962;DHT22;22044;48.298;10.008;2022-11-20T13:41:55;6.40;99.90
35962;DHT22;22044;48.298;10.008;2022-11-20T13:44:44;6.40;99.90
35962;DHT22;22044;48.298;10.008;2022-11-20T13:47:31;6.40;99.90
35962;DHT22;22044;48.298;10.008;2022-11-20T13:50:17;6.30;99.90
35962;DHT22;22044;48.298;10.008;2022-11-20T13:53:10;6.30;99.90
35962;DHT22;22044;48.298;10.008;2022-11-20T13:56:01;6.30;99.90
35962;DHT22;22044;48.298;10.008;2022-11-20T13:58:56;6.30;99.90
35962;DHT22;22044;48.298;10.008;2022-11-20T14:01:45;6.30;99.90
35962;DHT22;22044;48.298;10.008;2022-11-20T14:04:35;6.30;99.90
35962;DHT22;22044;48.298;10.008;2022-11-20T14:07:25;6.40;99.90
35962;DHT22;22044;48.298;10.008;2022-11-20T14:10:21;6.40;99.90
35962;DHT22;22044;48.298;10.008;2022-11-20T14:13:12;6.40;99.90
35962;DHT22;22044;48.298;10.008;2022-11-20T14:16:00;6.30;99.90
35962;DHT22;22044;48.298;10.008;2022-11-20T14:18:46;6.30;99.90
35962;DHT22;22044;48.298;10.008;2022-11-20T14:21:33;6.30;99.90
35962;DHT22;22044;48.298;10.008;2022-11-20T14:24:21;6.30;99.90
35962;DHT22;22044;48.298;10.008;2022-11-20T14:27:13;6.10;99.90
35962;DHT22;22044;48.298;10.008;2022-11-20T14:30:01;6.00;99.90
35962;DHT22;22044;48.298;10.008;2022-11-20T14:32:48;5.80;99.90
35962;DHT22;22044;48.298;10.008;2022-11-20T14:35:35;5.80;99.90
35962;DHT22;22044;48.298;10.008;2022-11-20T14:38:25;5.80;99.90
35962;DHT22;22044;48.298;10.008;2022-11-20T14:41:17;5.90;99.90
35962;DHT22;22044;48.298;10.008;2022-11-20T14:44:04;5.90;99.90
35962;DHT22;22044;48.298;10.008;2022-11-20T14:46:51;6.00;99.90
35962;DHT22;22044;48.298;10.008;2022-11-20T14:49:37;5.90;99.90
35962;DHT22;22044;48.298;10.008;2022-11-20T14:52:24;5.90;99.90
35962;DHT22;22044;48.298;10.008;2022-11-20T14:55:25;5.90;99.90
35962;DHT22;22044;48.298;10.008;2022-11-20T14:58:21;5.90;99.90
35962;DHT22;22044;48.298;10.008;2022-11-20T15:01:11;5.80;99.90
35962;DHT22;22044;48.298;10.008;2022-11-20T15:04:00;5.80;99.90
35962;DHT22;22044;48.298;10.008;2022-11-20T15:06:50;5.90;99.90
35962;DHT22;22044;48.298;10.008;2022-11-20T15:09:36;5.90;99.90
35962;DHT22;22044;48.298;10.008;2022-11-20T15:12:23;5.80;99.90
35962;DHT22;22044;48.298;10.008;2022-11-20T15:15:11;5.80;99.90
35962;DHT22;22044;48.298;10.008;2022-11-20T15:17:57;5.90;99.90
35962;DHT22;22044;48.298;10.008;2022-11-20T15:20:43;5.80;99.90
35962;DHT22;22044;48.298;10.008;2022-11-20T15:23:29;5.70;99.90
35962;DHT22;22044;48.298;10.008;2022-11-20T15:26:19;5.70;99.90
35962;DHT22;22044;48.298;10.008;2022-11-20T15:29:10;5.60;99.90
35962;DHT22;22044;48.298;10.008;2022-11-20T15:31:55;5.60;99.90
35962;DHT22;22044;48.298;10.008;2022-11-20T15:34:41;5.50;99.90
35962;DHT22;22044;48.298;10.008;2022-11-20T15:37:26;5.40;99.90
35962;DHT22;22044;48.298;10.008;2022-11-20T15:40:12;5.40;99.90
35962;DHT22;22044;48.298;10.008;2022-11-20T15:42:58;5.20;99.90
35962;DHT22;22044;48.298;10.008;2022-11-20T15:45:53;5.10;99.90
35962;DHT22;22044;48.298;10.008;2022-11-20T15:48:41;5.10;99.90
35962;DHT22;22044;48.298;10.008;2022-11-20T15:51:30;4.90;99.90
35962;DHT22;22044;48.298;10.008;2022-11-20T15:54:17;4.90;99.90
35962;DHT22;22044;48.298;10.008;2022-11-20T15:57:04;4.80;99.90
35962;DHT22;22044;48.298;10.008;2022-11-20T15:59:50;4.60;99.90
35962;DHT22;22044;48.298;10.008;2022-11-20T16:02:37;4.50;99.90
35962;DHT22;22044;48.298;10.008;2022-11-20T16:05:22;4.50;99.90
35962;DHT22;22044;48.298;10.008;2022-11-20T16:08:08;4.40;99.90
35962;DHT22;22044;48.298;10.008;2022-11-20T16:10:54;4.40;99.90
35962;DHT22;22044;48.298;10.008;2022-11-20T16:13:39;4.40;99.90
35962;DHT22;22044;48.298;10.008;2022-11-20T16:16:42;4.40;99.90
35962;DHT22;22044;48.298;10.008;2022-11-20T16:19:30;4.40;99.90
35962;DHT22;22044;48.298;10.008;2022-11-20T16:22:15;4.40;99.90
35962;DHT22;22044;48.298;10.008;2022-11-20T16:25:01;4.50;99.90
35962;DHT22;22044;48.298;10.008;2022-11-20T16:27:46;4.50;99.90
35962;DHT22;22044;48.298;10.008;2022-11-20T16:30:32;4.40;99.90
35962;DHT22;22044;48.298;10.008;2022-11-20T16:33:17;4.40;99.90
35962;DHT22;22044;48.298;10.008;2022-11-20T16:36:08;4.40;99.90
35962;DHT22;22044;48.298;10.008;2022-11-20T16:38:55;4.50;99.90
35962;DHT22;22044;48.298;10.008;2022-11-20T16:41:41;4.50;99.90
35962;DHT22;22044;48.298;10.008;2022-11-20T16:44:26;4.40;99.90
35962;DHT22;22044;48.298;10.008;2022-11-20T16:47:12;4.40;99.90
35962;DHT22;22044;48.298;10.008;2022-11-20T16:49:57;4.40;99.90
35962;DHT22;22044;48.298;10.008;2022-11-20T16:52:44;4.40;99.90
35962;DHT22;22044;48.298;10.008;2022-11-20T16:55:30;4.40;99.90
35962;DHT22;22044;48.298;10.008;2022-11-20T16:58:16;4.40;99.90
35962;DHT22;22044;48.298;10.008;2022-11-20T17:01:05;4.50;99.90
35962;DHT22;22044;48.298;10.008;2022-11-20T17:03:55;4.40;99.90
35962;DHT22;22044;48.298;10.008;2022-11-20T17:06:42;4.40;99.90
35962;DHT22;22044;48.298;10.008;2022-11-20T17:09:29;4.50;99.90
35962;DHT22;22044;48.298;10.008;2022-11-20T17:12:15;4.40;99.90
35962;DHT22;22044;48.298;10.008;2022-11-20T17:15:01;4.50;99.90
35962;DHT22;22044;48.298;10.008;2022-11-20T17:17:47;4.40;99.90
35962;DHT22;22044;48.298;10.008;2022-11-20T17:20:33;4.40;99.90
35962;DHT22;22044;48.298;10.008;2022-11-20T17:23:18;4.40;99.90
35962;DHT22;22044;48.298;10.008;2022-11-20T17:26:06;4.30;99.90
35962;DHT22;22044;48.298;10.008;2022-11-20T17:28:54;4.30;99.90
35962;DHT22;22044;48.298;10.008;2022-11-20T17:31:41;4.40;99.90
35962;DHT22;22044;48.298;10.008;2022-11-20T17:34:27;4.40;99.90
35962;DHT22;22044;48.298;10.008;2022-11-20T17:37:12;4.30;99.90
35962;DHT22;22044;48.298;10.008;2022-11-20T17:39:58;4.40;99.90
35962;DHT22;22044;48.298;10.008;2022-11-20T17:42:45;4.40;99.90
35962;DHT22;22044;48.298;10.008;2022-11-20T17:45:31;4.40;99.90
35962;DHT22;22044;48.298;10.008;2022-11-20T17:48:16;4.40;99.90
35962;DHT22;22044;48.298;10.008;2022-11-20T17:51:03;4.40;99.90